Trevor, Wisconsin
Current Conditions -  °F | °C
As of 2:53 PM on Sunday 21 Dec 2014 (Local Time) from KENW Reporting Station
Haze Haze  
Wind Chill: -1°   Ceiling: 3300
Heat Index:   Visibility: 6mi
Dew Point: -1°   Wind: 10mph
Humidity: 76%   Direction: 170°S
Pressure: 30.07"   Gusts: NA
Location:  42.51°N, 88.12°W
Report Text: KENW 212053Z 17009KT 6SM HZ OVC033 03/M01 A3007 RMK AO2 SLP190 T00281011 55017
Loading
Personal Weather Stations






























Interactive Weather Map New forecast layout! Learn more

10-Day Weather Forecast

Advertisements
Track Severe Weather on mobile